GFA002 EGLL-OBBI
Flight info
| Callsign | GFA002 |
|---|---|
| Flight time | N/A |
| Altitude | 33000 |
| Route | DET L6 DVR UL9 KONAN DCT KOK/N0489F350 DCT REMBA/N0487F370 UL607 SPI DCT GUBAX/N0484F390 DCT BOREP DCT ENITA DCT PEPIK DCT ERGOM DCT TEGRI DCT RASUB DCT ARTAT UP975 ERGUN UL124 EVSAS DCT KEDIM DCT SISIN DCT SIDAD P975 LONOS/N0515F310 L703 KOBOK |
| Aircraft | B789/H-SDE1E2E3FGHIJ2J3J4J5M1RWXY/LB1D1 |
Departure
| Time | 2026-05-04 09:06 |
|---|---|
| Airport | London Heathrow Airport (EGLL) |
Arrival
| Time | N/A |
|---|---|
| Airport | Bahrain International Airport (OBBI) |
| Time | Latitude | Longitude | Altitude | Speed | Heading |
|---|---|---|---|---|---|
| 2026-05-04 08:33 | 51.46127 | -0.45104 | 93 ft | 0 kts | 311° |
| 2026-05-04 08:57 | 51.46097 | -0.45049 | 93 ft | 4 kts | 311° |
| 2026-05-04 09:01 | 51.46031 | -0.45055 | 94 ft | 0 kts | 41° |
| 2026-05-04 09:01 | 51.46040 | -0.45042 | 91 ft | 7 kts | 41° |
| 2026-05-04 09:02 | 51.46098 | -0.44959 | 93 ft | 16 kts | 41° |
| 2026-05-04 09:02 | 51.46171 | -0.44856 | 91 ft | 13 kts | 41° |
| 2026-05-04 09:02 | 51.46236 | -0.44762 | 92 ft | 11 kts | 41° |
| 2026-05-04 09:02 | 51.46294 | -0.44680 | 93 ft | 11 kts | 42° |
| 2026-05-04 09:03 | 51.46324 | -0.44577 | 94 ft | 10 kts | 83° |
| 2026-05-04 09:03 | 51.46326 | -0.44445 | 91 ft | 13 kts | 90° |
| 2026-05-04 09:03 | 51.46326 | -0.44301 | 95 ft | 13 kts | 90° |
| 2026-05-04 09:03 | 51.46353 | -0.44170 | 92 ft | 12 kts | 44° |
| 2026-05-04 09:04 | 51.46423 | -0.44095 | 94 ft | 13 kts | 29° |
| 2026-05-04 09:04 | 51.46481 | -0.44093 | 92 ft | 4 kts | 316° |
| 2026-05-04 09:04 | 51.46493 | -0.44145 | 91 ft | 6 kts | 280° |
| 2026-05-04 09:04 | 51.46494 | -0.44210 | 91 ft | 10 kts | 269° |
| 2026-05-04 09:05 | 51.46491 | -0.44580 | 93 ft | 62 kts | 269° |
| 2026-05-04 09:05 | 51.46489 | -0.45584 | 91 ft | 119 kts | 269° |
| 2026-05-04 09:05 | 51.46485 | -0.47184 | 96 ft | 167 kts | 270° |
| 2026-05-04 09:05 | 51.46481 | -0.49105 | 581 ft | 172 kts | 269° |
| 2026-05-04 09:06 | 51.46456 | -0.51184 | 966 ft | 195 kts | 267° |
| 2026-05-04 09:07 | 51.37919 | -0.46330 | 5359 ft | 267 kts | 136° |
| 2026-05-04 09:08 | 51.36557 | -0.44266 | 6171 ft | 271 kts | 136° |
| 2026-05-04 09:08 | 51.35190 | -0.42160 | 6957 ft | 274 kts | 136° |
| 2026-05-04 09:08 | 51.33807 | -0.40028 | 7724 ft | 278 kts | 136° |
| 2026-05-04 09:08 | 51.32466 | -0.37784 | 8441 ft | 281 kts | 123° |
| 2026-05-04 09:09 | 51.31887 | -0.34847 | 9184 ft | 282 kts | 94° |
| 2026-05-04 09:09 | 51.31819 | -0.31711 | 9826 ft | 287 kts | 89° |
| 2026-05-04 09:09 | 51.31852 | -0.28474 | 10306 ft | 300 kts | 89° |
| 2026-05-04 09:09 | 51.31833 | -0.24968 | 10362 ft | 328 kts | 91° |
| 2026-05-04 09:10 | 51.31761 | -0.21198 | 10417 ft | 353 kts | 92° |
| 2026-05-04 09:10 | 51.31691 | -0.17144 | 10714 ft | 368 kts | 91° |
| 2026-05-04 09:10 | 51.31643 | -0.13090 | 11425 ft | 370 kts | 91° |
| 2026-05-04 09:10 | 51.31591 | -0.08931 | 12008 ft | 375 kts | 91° |
| 2026-05-04 09:11 | 51.31550 | -0.06157 | 12404 ft | 377 kts | 92° |
| 2026-05-04 09:11 | 51.31461 | -0.00544 | 13193 ft | 382 kts | 92° |
| 2026-05-04 09:11 | 51.31417 | 0.02334 | 13593 ft | 384 kts | 92° |
| 2026-05-04 09:11 | 51.31353 | 0.06600 | 14081 ft | 389 kts | 92° |
| 2026-05-04 09:12 | 51.31285 | 0.10962 | 14612 ft | 393 kts | 92° |
| 2026-05-04 09:12 | 51.31215 | 0.15307 | 15158 ft | 396 kts | 92° |
| 2026-05-04 09:14 | 51.30653 | 0.46937 | 18561 ft | 416 kts | 92° |
| 2026-05-04 09:14 | 51.30563 | 0.51585 | 18990 ft | 419 kts | 92° |
| 2026-05-04 09:14 | 51.30471 | 0.56259 | 19386 ft | 422 kts | 92° |
| 2026-05-04 09:14 | 51.30182 | 0.60925 | 19748 ft | 423 kts | 105° |
| 2026-05-04 09:15 | 51.29378 | 0.65405 | 20082 ft | 425 kts | 107° |
| 2026-05-04 09:15 | 51.28536 | 0.69964 | 20488 ft | 428 kts | 108° |
| 2026-05-04 09:15 | 51.27687 | 0.74558 | 20843 ft | 430 kts | 107° |
| 2026-05-04 09:15 | 51.26846 | 0.79170 | 21201 ft | 433 kts | 107° |
| 2026-05-04 09:17 | 51.19880 | 1.16699 | 23660 ft | 450 kts | 108° |
| 2026-05-04 09:18 | 51.18979 | 1.21511 | 23919 ft | 453 kts | 108° |
| 2026-05-04 09:18 | 51.18067 | 1.26363 | 24184 ft | 455 kts | 108° |
| 2026-05-04 09:18 | 51.17164 | 1.31145 | 24452 ft | 456 kts | 109° |
| 2026-05-04 09:18 | 51.16327 | 1.36043 | 24664 ft | 460 kts | 101° |
| 2026-05-04 09:19 | 51.16007 | 1.41122 | 24885 ft | 462 kts | 96° |
| 2026-05-04 09:19 | 51.15764 | 1.46275 | 25101 ft | 464 kts | 96° |
| 2026-05-04 09:19 | 51.15531 | 1.51376 | 25332 ft | 466 kts | 96° |
| 2026-05-04 09:19 | 51.15280 | 1.56549 | 25571 ft | 467 kts | 96° |
| 2026-05-04 09:20 | 51.15023 | 1.61673 | 25799 ft | 469 kts | 96° |
| 2026-05-04 09:20 | 51.14765 | 1.66882 | 26030 ft | 471 kts | 96° |
| 2026-05-04 09:20 | 51.14510 | 1.72046 | 26264 ft | 472 kts | 96° |
| 2026-05-04 09:20 | 51.14248 | 1.77272 | 26497 ft | 474 kts | 96° |
| 2026-05-04 09:21 | 51.13980 | 1.82527 | 26729 ft | 475 kts | 96° |
| 2026-05-04 09:21 | 51.13711 | 1.87796 | 26968 ft | 476 kts | 96° |
| 2026-05-04 09:21 | 51.13442 | 1.93024 | 27176 ft | 478 kts | 96° |
| 2026-05-04 09:21 | 51.13165 | 1.98336 | 27396 ft | 480 kts | 97° |
| 2026-05-04 09:22 | 51.12888 | 2.03592 | 27633 ft | 481 kts | 97° |
| 2026-05-04 09:22 | 51.12605 | 2.08927 | 27813 ft | 483 kts | 97° |
| 2026-05-04 09:22 | 51.12318 | 2.14296 | 28046 ft | 485 kts | 97° |
| 2026-05-04 09:22 | 51.12032 | 2.19593 | 28264 ft | 486 kts | 97° |
| 2026-05-04 09:23 | 51.11738 | 2.24979 | 28481 ft | 487 kts | 97° |
| 2026-05-04 09:23 | 51.11441 | 2.30381 | 28702 ft | 489 kts | 97° |
| 2026-05-04 09:23 | 51.11142 | 2.35804 | 28914 ft | 490 kts | 97° |
| 2026-05-04 09:23 | 51.10842 | 2.41159 | 29137 ft | 491 kts | 97° |
| 2026-05-04 09:25 | 51.07011 | 2.78788 | 30513 ft | 496 kts | 109° |
| 2026-05-04 09:25 | 51.06048 | 2.84070 | 30810 ft | 496 kts | 109° |
| 2026-05-04 09:26 | 51.05095 | 2.89340 | 31096 ft | 495 kts | 109° |
| 2026-05-04 09:26 | 51.04149 | 2.94542 | 31380 ft | 495 kts | 109° |
| 2026-05-04 09:26 | 51.03184 | 2.99812 | 31643 ft | 494 kts | 109° |
| 2026-05-04 09:26 | 51.02216 | 3.05071 | 31924 ft | 494 kts | 109° |
| 2026-05-04 09:27 | 51.01262 | 3.10249 | 32225 ft | 493 kts | 109° |
| 2026-05-04 09:27 | 51.00299 | 3.15474 | 32530 ft | 493 kts | 109° |
| 2026-05-04 09:27 | 50.99332 | 3.20705 | 32858 ft | 492 kts | 109° |
| 2026-05-04 09:27 | 50.98364 | 3.25916 | 32997 ft | 495 kts | 109° |
| 2026-05-04 09:28 | 50.96422 | 3.36334 | 33001 ft | 491 kts | 109° |
| 2026-05-04 09:28 | 50.94478 | 3.46717 | 32984 ft | 489 kts | 109° |
| 2026-05-04 09:29 | 50.92527 | 3.57055 | 32995 ft | 489 kts | 109° |
| 2026-05-04 09:29 | 50.90603 | 3.67225 | 32979 ft | 480 kts | 109° |
| 2026-05-04 09:30 | 50.88679 | 3.77307 | 33138 ft | 481 kts | 110° |
| 2026-05-04 09:30 | 50.87706 | 3.82396 | 33388 ft | 482 kts | 110° |
| 2026-05-04 09:30 | 50.86729 | 3.87497 | 33613 ft | 484 kts | 110° |
| 2026-05-04 09:31 | 50.85747 | 3.92610 | 33824 ft | 485 kts | 110° |
| 2026-05-04 09:31 | 50.84765 | 3.97692 | 34020 ft | 487 kts | 110° |
| 2026-05-04 09:31 | 50.83765 | 4.02859 | 34238 ft | 489 kts | 110° |
| 2026-05-04 09:31 | 50.82776 | 4.07959 | 34398 ft | 491 kts | 110° |
| 2026-05-04 09:32 | 50.81768 | 4.13153 | 34603 ft | 493 kts | 110° |
| 2026-05-04 09:32 | 50.80755 | 4.18347 | 34807 ft | 493 kts | 110° |
| 2026-05-04 09:34 | 50.73638 | 4.54469 | 36548 ft | 492 kts | 110° |
| 2026-05-04 09:34 | 50.72626 | 4.59552 | 36906 ft | 487 kts | 110° |
| 2026-05-04 09:34 | 50.71602 | 4.64679 | 37018 ft | 489 kts | 110° |
| 2026-05-04 09:34 | 50.70573 | 4.69819 | 37009 ft | 488 kts | 110° |
| 2026-05-04 09:35 | 50.68553 | 4.79879 | 37007 ft | 480 kts | 110° |
| 2026-05-04 09:35 | 50.66518 | 4.89944 | 37012 ft | 480 kts | 110° |
| 2026-05-04 09:37 | 50.58249 | 5.30070 | 37010 ft | 481 kts | 110° |
| 2026-05-04 09:38 | 50.56169 | 5.40043 | 37009 ft | 479 kts | 110° |
| 2026-05-04 09:38 | 50.54092 | 5.49944 | 37011 ft | 479 kts | 110° |
| 2026-05-04 09:39 | 50.51987 | 5.59929 | 37014 ft | 480 kts | 110° |
| 2026-05-04 09:39 | 50.51228 | 5.65069 | 37055 ft | 483 kts | 99° |
| 2026-05-04 09:39 | 50.50763 | 5.70260 | 37025 ft | 484 kts | 99° |
| 2026-05-04 09:40 | 50.49852 | 5.80709 | 37026 ft | 484 kts | 100° |
| 2026-05-04 09:40 | 50.48900 | 5.91179 | 37021 ft | 483 kts | 100° |
| 2026-05-04 09:42 | 50.45060 | 6.32827 | 37008 ft | 484 kts | 100° |
| 2026-05-04 09:43 | 50.44075 | 6.43238 | 37008 ft | 484 kts | 100° |
| 2026-05-04 09:43 | 50.43073 | 6.53712 | 37009 ft | 484 kts | 100° |
| 2026-05-04 09:44 | 50.42068 | 6.64125 | 37010 ft | 485 kts | 101° |
| 2026-05-04 09:46 | 50.37948 | 7.05821 | 37001 ft | 483 kts | 101° |
| 2026-05-04 09:46 | 50.36896 | 7.16210 | 37015 ft | 483 kts | 101° |
| 2026-05-04 09:47 | 50.35836 | 7.26597 | 37016 ft | 484 kts | 101° |
| 2026-05-04 09:49 | 50.31489 | 7.68206 | 37023 ft | 484 kts | 101° |
| 2026-05-04 09:51 | 50.27594 | 8.04461 | 37022 ft | 483 kts | 101° |
| 2026-05-04 09:51 | 50.26466 | 8.14828 | 37023 ft | 483 kts | 101° |
| 2026-05-04 09:52 | 50.25336 | 8.25132 | 37029 ft | 483 kts | 101° |
| 2026-05-04 09:52 | 50.24187 | 8.35524 | 37039 ft | 484 kts | 101° |
| 2026-05-04 09:53 | 50.23036 | 8.45851 | 37041 ft | 485 kts | 102° |
| 2026-05-04 09:53 | 50.21874 | 8.56178 | 37029 ft | 484 kts | 102° |
| 2026-05-04 09:54 | 50.20697 | 8.66565 | 37026 ft | 483 kts | 102° |
| 2026-05-04 09:54 | 50.19519 | 8.76867 | 37024 ft | 483 kts | 102° |
| 2026-05-04 09:55 | 50.18331 | 8.87166 | 37026 ft | 484 kts | 102° |
| 2026-05-04 09:55 | 50.17129 | 8.97512 | 37025 ft | 484 kts | 102° |
| 2026-05-04 09:56 | 50.15922 | 9.07811 | 37024 ft | 483 kts | 102° |
| 2026-05-04 09:56 | 50.14707 | 9.18096 | 37029 ft | 483 kts | 102° |
| 2026-05-04 09:57 | 50.13478 | 9.28411 | 37028 ft | 484 kts | 102° |
| 2026-05-04 09:57 | 50.12233 | 9.38793 | 37030 ft | 486 kts | 102° |
| 2026-05-04 09:58 | 50.10985 | 9.49102 | 37032 ft | 486 kts | 102° |
| 2026-05-04 09:58 | 50.09729 | 9.59415 | 37032 ft | 485 kts | 102° |
| 2026-05-04 10:00 | 50.04837 | 9.98806 | 37033 ft | 485 kts | 102° |
| 2026-05-04 10:04 | 49.95528 | 10.70656 | 37029 ft | 483 kts | 103° |
| 2026-05-04 10:04 | 49.94143 | 10.80840 | 37029 ft | 483 kts | 103° |
| 2026-05-04 10:05 | 49.92752 | 10.91072 | 37130 ft | 483 kts | 103° |
| 2026-05-04 10:05 | 49.92052 | 10.96169 | 37357 ft | 482 kts | 103° |
| 2026-05-04 10:05 | 49.91351 | 11.01259 | 37537 ft | 482 kts | 103° |
| 2026-05-04 10:05 | 49.90658 | 11.06292 | 37708 ft | 482 kts | 103° |
| 2026-05-04 10:06 | 49.89952 | 11.11398 | 37883 ft | 482 kts | 103° |
| 2026-05-04 10:06 | 49.89243 | 11.16499 | 38073 ft | 482 kts | 103° |
| 2026-05-04 10:06 | 49.88541 | 11.21523 | 38259 ft | 481 kts | 103° |
| 2026-05-04 10:08 | 49.84255 | 11.51906 | 39061 ft | 484 kts | 103° |
| 2026-05-04 10:08 | 49.83524 | 11.57022 | 39069 ft | 482 kts | 103° |
| 2026-05-04 10:08 | 49.82080 | 11.67080 | 39086 ft | 479 kts | 103° |
| 2026-05-04 10:09 | 49.80621 | 11.77194 | 39089 ft | 479 kts | 104° |
| 2026-05-04 10:09 | 49.79164 | 11.87211 | 39084 ft | 478 kts | 104° |
| 2026-05-04 10:10 | 49.77697 | 11.97243 | 39097 ft | 479 kts | 104° |
| 2026-05-04 10:10 | 49.76219 | 12.07272 | 39095 ft | 479 kts | 104° |
| 2026-05-04 10:11 | 49.74733 | 12.17298 | 39096 ft | 480 kts | 104° |
| 2026-05-04 10:11 | 49.73226 | 12.27395 | 39097 ft | 480 kts | 104° |
| 2026-05-04 10:12 | 49.71725 | 12.37390 | 39089 ft | 481 kts | 104° |
| 2026-05-04 10:12 | 49.70203 | 12.47438 | 39080 ft | 480 kts | 106° |
| 2026-05-04 10:13 | 49.68426 | 12.57427 | 39070 ft | 481 kts | 105° |
| 2026-05-04 10:13 | 49.66688 | 12.67345 | 39068 ft | 479 kts | 107° |
| 2026-05-04 10:14 | 49.64900 | 12.77234 | 39050 ft | 480 kts | 106° |
| 2026-05-04 10:16 | 49.57722 | 13.16877 | 39014 ft | 479 kts | 107° |
| 2026-05-04 10:16 | 49.55934 | 13.26617 | 39020 ft | 478 kts | 107° |
| 2026-05-04 10:17 | 49.54150 | 13.36271 | 39009 ft | 479 kts | 107° |
| 2026-05-04 10:19 | 49.46855 | 13.75261 | 39035 ft | 481 kts | 107° |
| 2026-05-04 10:19 | 49.45099 | 13.84526 | 39034 ft | 480 kts | 107° |
| 2026-05-04 10:20 | 49.43228 | 13.94340 | 39031 ft | 479 kts | 107° |
| 2026-05-04 10:20 | 49.41420 | 14.03787 | 39026 ft | 478 kts | 107° |
| 2026-05-04 10:21 | 49.39541 | 14.13546 | 39032 ft | 479 kts | 107° |
| 2026-05-04 10:21 | 49.37648 | 14.23331 | 39035 ft | 480 kts | 107° |
| 2026-05-04 10:22 | 49.34847 | 14.37723 | 39037 ft | 480 kts | 107° |
| 2026-05-04 10:23 | 49.32937 | 14.47470 | 39039 ft | 479 kts | 108° |
| 2026-05-04 10:25 | 49.25356 | 14.85691 | 39032 ft | 478 kts | 108° |
| 2026-05-04 10:25 | 49.23426 | 14.95303 | 39037 ft | 479 kts | 108° |
| 2026-05-04 10:26 | 49.21489 | 15.04906 | 39043 ft | 479 kts | 108° |
| 2026-05-04 10:26 | 49.19527 | 15.14569 | 39045 ft | 479 kts | 108° |
| 2026-05-04 10:27 | 49.17559 | 15.24234 | 39047 ft | 479 kts | 108° |
| 2026-05-04 10:27 | 49.15575 | 15.33921 | 39049 ft | 479 kts | 108° |
| 2026-05-04 10:28 | 49.13651 | 15.43272 | 39063 ft | 478 kts | 108° |
| 2026-05-04 10:28 | 49.11601 | 15.53185 | 39059 ft | 478 kts | 108° |
| 2026-05-04 10:29 | 49.09598 | 15.62824 | 39056 ft | 477 kts | 108° |
| 2026-05-04 10:29 | 49.07602 | 15.72388 | 39069 ft | 476 kts | 108° |
| 2026-05-04 10:30 | 49.05594 | 15.81958 | 39070 ft | 477 kts | 108° |
| 2026-05-04 10:30 | 49.03601 | 15.91423 | 39075 ft | 477 kts | 108° |
| 2026-05-04 10:31 | 49.01572 | 16.00996 | 39082 ft | 478 kts | 108° |
| 2026-05-04 10:32 | 48.94505 | 16.34023 | 39068 ft | 474 kts | 108° |
| 2026-05-04 10:33 | 48.92480 | 16.43395 | 39069 ft | 475 kts | 108° |
| 2026-05-04 10:33 | 48.90410 | 16.52923 | 39064 ft | 477 kts | 108° |
| 2026-05-04 10:34 | 48.88345 | 16.62385 | 39064 ft | 477 kts | 108° |
| 2026-05-04 10:34 | 48.86249 | 16.71946 | 39060 ft | 475 kts | 108° |
| 2026-05-04 10:35 | 48.84198 | 16.81264 | 39056 ft | 473 kts | 108° |
| 2026-05-04 10:35 | 48.82106 | 16.90719 | 39055 ft | 474 kts | 108° |
| 2026-05-04 10:36 | 48.80002 | 17.00190 | 39058 ft | 475 kts | 109° |
| 2026-05-04 10:36 | 48.77376 | 17.09278 | 39093 ft | 474 kts | 127° |
| 2026-05-04 10:37 | 48.73115 | 17.16965 | 39066 ft | 476 kts | 131° |
| 2026-05-04 10:37 | 48.68782 | 17.24484 | 39074 ft | 475 kts | 131° |
| 2026-05-04 10:39 | 48.53594 | 17.50799 | 39088 ft | 474 kts | 131° |
| 2026-05-04 10:40 | 48.49265 | 17.58247 | 39087 ft | 474 kts | 131° |
| 2026-05-04 10:40 | 48.44906 | 17.65731 | 39086 ft | 473 kts | 131° |
| 2026-05-04 10:41 | 48.40558 | 17.73168 | 39086 ft | 473 kts | 131° |
| 2026-05-04 10:41 | 48.36212 | 17.80584 | 39081 ft | 475 kts | 131° |
| 2026-05-04 10:42 | 48.31830 | 17.88041 | 39085 ft | 475 kts | 131° |
| 2026-05-04 10:42 | 48.27464 | 17.95449 | 39083 ft | 476 kts | 131° |
| 2026-05-04 10:43 | 48.23082 | 18.02865 | 39085 ft | 476 kts | 131° |
| 2026-05-04 10:45 | 48.05461 | 18.32470 | 39087 ft | 476 kts | 131° |
| 2026-05-04 10:45 | 48.01072 | 18.39793 | 39097 ft | 475 kts | 131° |
| 2026-05-04 10:46 | 47.96651 | 18.47152 | 39094 ft | 474 kts | 131° |
| 2026-05-04 10:46 | 47.92248 | 18.54456 | 39094 ft | 474 kts | 131° |
| 2026-05-04 10:47 | 47.87855 | 18.61727 | 39093 ft | 473 kts | 131° |
| 2026-05-04 10:47 | 47.83421 | 18.69045 | 39109 ft | 476 kts | 131° |
| 2026-05-04 10:49 | 47.65391 | 18.97975 | 39123 ft | 478 kts | 132° |
| 2026-05-04 10:50 | 47.60869 | 19.05163 | 39124 ft | 478 kts | 132° |
| 2026-05-04 10:52 | 47.43446 | 19.32652 | 39128 ft | 479 kts | 133° |
| 2026-05-04 10:52 | 47.39087 | 19.39486 | 39130 ft | 480 kts | 133° |
| 2026-05-04 10:54 | 47.20741 | 19.68053 | 39149 ft | 477 kts | 133° |
| 2026-05-04 10:56 | 47.02424 | 19.96270 | 39155 ft | 479 kts | 133° |
| 2026-05-04 10:57 | 46.97848 | 20.03273 | 39160 ft | 480 kts | 133° |
| 2026-05-04 10:57 | 46.93218 | 20.10340 | 39158 ft | 479 kts | 133° |
| 2026-05-04 10:58 | 46.88623 | 20.17333 | 39158 ft | 478 kts | 133° |
| 2026-05-04 10:58 | 46.84012 | 20.24334 | 39152 ft | 477 kts | 133° |
| 2026-05-04 10:59 | 46.79425 | 20.31276 | 39149 ft | 476 kts | 133° |
| 2026-05-04 10:59 | 46.74817 | 20.38241 | 39151 ft | 477 kts | 133° |
| 2026-05-04 11:00 | 46.70197 | 20.45197 | 39153 ft | 480 kts | 133° |
| 2026-05-04 11:02 | 46.51606 | 20.73017 | 39160 ft | 479 kts | 133° |
| 2026-05-04 11:05 | 46.18294 | 21.26699 | 39162 ft | 477 kts | 124° |
| 2026-05-04 11:06 | 46.14464 | 21.34449 | 39161 ft | 475 kts | 124° |
| 2026-05-04 11:06 | 46.10597 | 21.42266 | 39163 ft | 477 kts | 124° |
| 2026-05-04 11:10 | 45.83388 | 21.96616 | 39165 ft | 478 kts | 124° |
| 2026-05-04 11:12 | 45.67745 | 22.27398 | 39154 ft | 479 kts | 124° |
| 2026-05-04 11:12 | 45.63800 | 22.35107 | 39157 ft | 479 kts | 124° |
| 2026-05-04 11:13 | 45.59877 | 22.42755 | 39160 ft | 479 kts | 125° |
| 2026-05-04 11:13 | 45.55925 | 22.50436 | 39156 ft | 479 kts | 125° |
| 2026-05-04 11:14 | 45.51986 | 22.58073 | 39145 ft | 480 kts | 125° |
| 2026-05-04 11:16 | 45.36173 | 22.88523 | 39130 ft | 477 kts | 125° |
| 2026-05-04 11:16 | 45.32220 | 22.96082 | 39134 ft | 478 kts | 125° |
| 2026-05-04 11:17 | 45.28229 | 23.03693 | 39131 ft | 479 kts | 125° |
| 2026-05-04 11:19 | 45.12317 | 23.33850 | 39120 ft | 475 kts | 126° |
| 2026-05-04 11:19 | 45.08358 | 23.41306 | 39118 ft | 475 kts | 126° |
| 2026-05-04 11:20 | 45.04377 | 23.48779 | 39118 ft | 478 kts | 126° |
| 2026-05-04 11:20 | 45.00383 | 23.56259 | 39123 ft | 478 kts | 126° |
| 2026-05-04 11:22 | 44.84341 | 23.86108 | 39093 ft | 475 kts | 126° |
| 2026-05-04 11:23 | 44.80335 | 23.93509 | 39094 ft | 476 kts | 126° |
| 2026-05-04 11:25 | 44.66223 | 24.19449 | 39090 ft | 476 kts | 126° |
| 2026-05-04 11:25 | 44.62222 | 24.26759 | 39088 ft | 475 kts | 126° |
| 2026-05-04 11:27 | 44.44005 | 24.59810 | 39093 ft | 477 kts | 127° |
| 2026-05-04 11:28 | 44.39945 | 24.67129 | 39091 ft | 477 kts | 127° |
| 2026-05-04 11:28 | 44.35863 | 24.74463 | 39093 ft | 477 kts | 127° |
| 2026-05-04 11:29 | 44.31790 | 24.81762 | 39089 ft | 477 kts | 127° |
| 2026-05-04 11:29 | 44.27703 | 24.89074 | 39089 ft | 476 kts | 127° |
| 2026-05-04 11:33 | 43.99056 | 25.39786 | 39086 ft | 475 kts | 127° |
| 2026-05-04 11:33 | 43.97272 | 25.43560 | 39117 ft | 473 kts | 115° |
| 2026-05-04 11:33 | 43.95792 | 25.47680 | 39091 ft | 475 kts | 115° |
| 2026-05-04 11:34 | 43.92879 | 25.55893 | 39092 ft | 475 kts | 115° |
| 2026-05-04 11:34 | 43.89936 | 25.64080 | 39093 ft | 475 kts | 116° |
| 2026-05-04 11:35 | 43.87004 | 25.72253 | 39095 ft | 475 kts | 116° |
| 2026-05-04 11:35 | 43.84036 | 25.80480 | 39090 ft | 474 kts | 116° |
| 2026-05-04 11:36 | 43.81097 | 25.88611 | 39090 ft | 474 kts | 116° |
| 2026-05-04 11:36 | 43.78147 | 25.96750 | 39088 ft | 474 kts | 116° |
| 2026-05-04 11:37 | 43.75176 | 26.04921 | 39086 ft | 473 kts | 116° |
| 2026-05-04 11:37 | 43.72224 | 26.13016 | 39086 ft | 473 kts | 116° |
| 2026-05-04 11:38 | 43.69263 | 26.21112 | 39087 ft | 474 kts | 116° |
| 2026-05-04 11:38 | 43.66274 | 26.29261 | 39089 ft | 475 kts | 116° |
| 2026-05-04 11:39 | 43.63287 | 26.37375 | 39093 ft | 475 kts | 116° |
| 2026-05-04 11:41 | 43.53291 | 26.64379 | 39085 ft | 473 kts | 116° |
| 2026-05-04 11:41 | 43.50279 | 26.72462 | 39055 ft | 473 kts | 116° |
| 2026-05-04 11:42 | 43.47281 | 26.80487 | 39056 ft | 472 kts | 116° |
| 2026-05-04 11:42 | 43.44281 | 26.88496 | 39055 ft | 472 kts | 116° |
| 2026-05-04 11:43 | 43.41263 | 26.96523 | 39054 ft | 473 kts | 116° |
| 2026-05-04 11:43 | 43.38223 | 27.04597 | 39054 ft | 475 kts | 117° |
| 2026-05-04 11:44 | 43.35193 | 27.12607 | 39055 ft | 474 kts | 117° |
| 2026-05-04 11:44 | 43.32143 | 27.20661 | 39038 ft | 474 kts | 117° |
| 2026-05-04 11:45 | 43.29105 | 27.28648 | 39041 ft | 473 kts | 117° |
| 2026-05-04 11:45 | 43.26065 | 27.36627 | 39040 ft | 472 kts | 117° |
| 2026-05-04 11:46 | 43.23007 | 27.44626 | 39036 ft | 472 kts | 117° |
| 2026-05-04 11:46 | 43.19959 | 27.52578 | 39034 ft | 472 kts | 117° |
| 2026-05-04 11:47 | 43.16903 | 27.60528 | 39032 ft | 474 kts | 117° |
| 2026-05-04 11:47 | 43.13831 | 27.68499 | 39038 ft | 475 kts | 117° |
| 2026-05-04 11:48 | 43.10746 | 27.76477 | 39033 ft | 475 kts | 117° |
| 2026-05-04 11:48 | 43.07645 | 27.84478 | 39035 ft | 475 kts | 117° |
| 2026-05-04 11:49 | 43.04553 | 27.92433 | 39036 ft | 475 kts | 117° |
| 2026-05-04 11:49 | 43.01433 | 28.00433 | 39036 ft | 475 kts | 117° |
| 2026-05-04 11:50 | 42.98317 | 28.08408 | 39035 ft | 475 kts | 117° |
| 2026-05-04 11:50 | 42.95212 | 28.16328 | 39032 ft | 473 kts | 117° |
| 2026-05-04 11:51 | 42.92112 | 28.24209 | 39029 ft | 473 kts | 117° |
| 2026-05-04 11:51 | 42.89004 | 28.32103 | 39028 ft | 473 kts | 117° |
| 2026-05-04 11:52 | 42.85863 | 28.40040 | 39028 ft | 474 kts | 117° |
| 2026-05-04 11:52 | 42.82742 | 28.47923 | 39032 ft | 475 kts | 117° |
| 2026-05-04 11:53 | 42.79600 | 28.55825 | 39046 ft | 476 kts | 117° |
| 2026-05-04 11:53 | 42.76427 | 28.63788 | 39048 ft | 476 kts | 117° |
| 2026-05-04 11:55 | 42.63772 | 28.95325 | 39041 ft | 475 kts | 118° |
| 2026-05-04 11:56 | 42.60601 | 29.03173 | 39039 ft | 474 kts | 118° |
| 2026-05-04 11:56 | 42.57432 | 29.11000 | 39035 ft | 475 kts | 118° |
| 2026-05-04 11:57 | 42.54232 | 29.18876 | 39036 ft | 475 kts | 118° |
| 2026-05-04 11:57 | 42.51049 | 29.26687 | 39033 ft | 475 kts | 118° |
| 2026-05-04 11:58 | 42.47858 | 29.34498 | 39034 ft | 476 kts | 118° |
| 2026-05-04 11:58 | 42.44636 | 29.42377 | 39038 ft | 476 kts | 118° |
| 2026-05-04 11:59 | 42.41427 | 29.50189 | 39039 ft | 478 kts | 118° |
| 2026-05-04 11:59 | 42.38183 | 29.58062 | 39036 ft | 478 kts | 118° |
| 2026-05-04 12:00 | 42.35425 | 29.66208 | 39036 ft | 476 kts | 108° |
| 2026-05-04 12:00 | 42.33297 | 29.74654 | 39038 ft | 477 kts | 108° |
| 2026-05-04 12:01 | 42.31136 | 29.83147 | 39038 ft | 477 kts | 108° |
| 2026-05-04 12:02 | 42.23538 | 30.12835 | 39002 ft | 482 kts | 108° |
| 2026-05-04 12:03 | 42.21338 | 30.21332 | 38988 ft | 480 kts | 108° |
| 2026-05-04 12:03 | 42.19142 | 30.29827 | 38984 ft | 481 kts | 108° |
| 2026-05-04 12:04 | 42.16932 | 30.38326 | 38981 ft | 480 kts | 108° |
| 2026-05-04 12:04 | 42.14714 | 30.46847 | 38982 ft | 482 kts | 108° |
| 2026-05-04 12:05 | 42.12489 | 30.55328 | 38975 ft | 480 kts | 109° |
| 2026-05-04 12:05 | 42.10265 | 30.63792 | 38968 ft | 480 kts | 109° |
| 2026-05-04 12:06 | 42.08037 | 30.72247 | 38968 ft | 480 kts | 109° |
| 2026-05-04 12:06 | 42.05790 | 30.80731 | 38961 ft | 480 kts | 109° |
| 2026-05-04 12:07 | 42.03544 | 30.89202 | 38960 ft | 479 kts | 109° |
| 2026-05-04 12:07 | 42.01306 | 30.97602 | 38953 ft | 479 kts | 109° |
| 2026-05-04 12:08 | 41.99044 | 31.06061 | 38953 ft | 482 kts | 108° |
| 2026-05-04 12:08 | 41.96782 | 31.14519 | 38952 ft | 483 kts | 109° |
| 2026-05-04 12:09 | 41.94524 | 31.22953 | 38941 ft | 482 kts | 109° |
| 2026-05-04 12:09 | 41.92223 | 31.31473 | 38944 ft | 483 kts | 109° |
| 2026-05-04 12:10 | 41.89940 | 31.39921 | 38935 ft | 481 kts | 110° |
| 2026-05-04 12:10 | 41.87656 | 31.48341 | 38931 ft | 482 kts | 109° |
| 2026-05-04 12:11 | 41.85359 | 31.56780 | 38930 ft | 482 kts | 109° |
| 2026-05-04 12:11 | 41.83043 | 31.65261 | 38913 ft | 483 kts | 109° |
| 2026-05-04 12:12 | 41.80724 | 31.73684 | 38910 ft | 481 kts | 109° |
| 2026-05-04 12:12 | 41.78410 | 31.82070 | 38916 ft | 480 kts | 109° |
| 2026-05-04 12:14 | 41.69084 | 32.15626 | 38909 ft | 481 kts | 110° |
| 2026-05-04 12:15 | 41.66742 | 32.24000 | 38912 ft | 481 kts | 110° |
| 2026-05-04 12:15 | 41.64405 | 32.32375 | 38903 ft | 482 kts | 110° |
| 2026-05-04 12:16 | 41.62034 | 32.40786 | 38907 ft | 484 kts | 110° |
| 2026-05-04 12:16 | 41.59649 | 32.49202 | 38894 ft | 484 kts | 110° |
| 2026-05-04 12:17 | 41.57269 | 32.57607 | 38897 ft | 483 kts | 110° |
| 2026-05-04 12:17 | 41.54873 | 32.66015 | 38884 ft | 483 kts | 110° |
| 2026-05-04 12:18 | 41.52516 | 32.74278 | 38876 ft | 485 kts | 110° |
| 2026-05-04 12:18 | 41.50082 | 32.82778 | 38862 ft | 485 kts | 110° |
| 2026-05-04 12:19 | 41.47661 | 32.91202 | 38864 ft | 485 kts | 110° |
| 2026-05-04 12:19 | 41.45203 | 32.99546 | 38853 ft | 484 kts | 117° |
| 2026-05-04 12:20 | 41.41971 | 33.07401 | 38840 ft | 485 kts | 119° |
| 2026-05-04 12:20 | 41.38704 | 33.15256 | 38830 ft | 485 kts | 118° |
| 2026-05-04 12:21 | 41.35449 | 33.23084 | 38828 ft | 484 kts | 119° |
| 2026-05-04 12:21 | 41.32250 | 33.30965 | 38819 ft | 484 kts | 117° |
| 2026-05-04 12:22 | 41.29091 | 33.38869 | 38820 ft | 485 kts | 118° |
| 2026-05-04 12:22 | 41.25924 | 33.46848 | 38816 ft | 487 kts | 117° |
| 2026-05-04 12:23 | 41.22794 | 33.54804 | 38814 ft | 487 kts | 118° |
| 2026-05-04 12:23 | 41.19627 | 33.62746 | 38814 ft | 486 kts | 117° |
| 2026-05-04 12:24 | 41.16477 | 33.70694 | 38810 ft | 485 kts | 118° |
| 2026-05-04 12:24 | 41.13330 | 33.78562 | 38807 ft | 485 kts | 118° |
| 2026-05-04 12:25 | 41.10154 | 33.86515 | 38808 ft | 486 kts | 118° |
| 2026-05-04 12:25 | 41.06982 | 33.94418 | 38810 ft | 487 kts | 118° |
| 2026-05-04 12:26 | 41.03811 | 34.02310 | 38815 ft | 488 kts | 118° |
| 2026-05-04 12:26 | 41.00603 | 34.10259 | 38811 ft | 488 kts | 118° |
| 2026-05-04 12:27 | 40.97415 | 34.18149 | 38811 ft | 487 kts | 118° |
| 2026-05-04 12:27 | 40.94221 | 34.26027 | 38807 ft | 486 kts | 118° |
| 2026-05-04 12:28 | 40.91017 | 34.33912 | 38807 ft | 486 kts | 118° |
| 2026-05-04 12:28 | 40.88330 | 34.40505 | 38804 ft | 486 kts | 118° |
| 2026-05-04 12:29 | 40.85131 | 34.48339 | 38805 ft | 487 kts | 118° |
| 2026-05-04 12:29 | 40.81894 | 34.56249 | 38806 ft | 488 kts | 119° |
| 2026-05-04 12:30 | 40.78664 | 34.64112 | 38791 ft | 489 kts | 119° |
| 2026-05-04 12:30 | 40.75420 | 34.72003 | 38793 ft | 487 kts | 117° |
| 2026-05-04 12:31 | 40.74150 | 34.76088 | 38819 ft | 487 kts | 106° |
| 2026-05-04 12:31 | 40.73189 | 34.80402 | 38793 ft | 489 kts | 107° |
| 2026-05-04 12:31 | 40.71310 | 34.89012 | 38792 ft | 489 kts | 107° |
| 2026-05-04 12:32 | 40.68440 | 35.01884 | 38780 ft | 489 kts | 107° |
| 2026-05-04 12:33 | 40.66519 | 35.10509 | 38786 ft | 489 kts | 107° |
| 2026-05-04 12:33 | 40.64597 | 35.19077 | 38788 ft | 489 kts | 107° |
| 2026-05-04 12:34 | 40.62662 | 35.27689 | 38782 ft | 489 kts | 107° |
| 2026-05-04 12:34 | 40.60732 | 35.36230 | 38781 ft | 488 kts | 107° |
| 2026-05-04 12:35 | 40.58801 | 35.44753 | 38783 ft | 488 kts | 107° |
| 2026-05-04 12:35 | 40.56858 | 35.53290 | 38781 ft | 488 kts | 107° |
| 2026-05-04 12:36 | 40.54905 | 35.61843 | 38772 ft | 487 kts | 107° |
| 2026-05-04 12:36 | 40.52948 | 35.70380 | 38777 ft | 488 kts | 107° |
| 2026-05-04 12:37 | 40.50980 | 35.78928 | 38778 ft | 489 kts | 108° |
| 2026-05-04 12:37 | 40.49001 | 35.87495 | 38781 ft | 490 kts | 108° |
| 2026-05-04 12:38 | 40.47014 | 35.96063 | 38786 ft | 491 kts | 108° |
| 2026-05-04 12:38 | 40.45023 | 36.04612 | 38791 ft | 491 kts | 108° |
| 2026-05-04 12:39 | 40.43020 | 36.13193 | 38790 ft | 490 kts | 108° |
| 2026-05-04 12:39 | 40.41025 | 36.21701 | 38785 ft | 490 kts | 108° |
| 2026-05-04 12:40 | 40.39003 | 36.30286 | 38788 ft | 490 kts | 108° |
| 2026-05-04 12:40 | 40.36992 | 36.38800 | 38789 ft | 490 kts | 108° |
| 2026-05-04 12:41 | 40.34964 | 36.47351 | 38786 ft | 490 kts | 108° |
| 2026-05-04 12:41 | 40.32942 | 36.55840 | 38780 ft | 490 kts | 108° |
| 2026-05-04 12:42 | 40.30908 | 36.64359 | 38784 ft | 490 kts | 108° |
| 2026-05-04 12:42 | 40.28870 | 36.72858 | 38778 ft | 489 kts | 108° |
| 2026-05-04 12:43 | 40.26818 | 36.81383 | 38785 ft | 488 kts | 109° |
| 2026-05-04 12:43 | 40.24774 | 36.89851 | 38785 ft | 488 kts | 109° |
| 2026-05-04 12:44 | 40.22728 | 36.98293 | 38777 ft | 489 kts | 109° |
| 2026-05-04 12:44 | 40.20672 | 37.06737 | 38785 ft | 489 kts | 109° |
| 2026-05-04 12:45 | 40.18606 | 37.15202 | 38792 ft | 488 kts | 109° |
| 2026-05-04 12:45 | 40.16523 | 37.23699 | 38785 ft | 488 kts | 109° |
| 2026-05-04 12:46 | 40.14452 | 37.32127 | 38787 ft | 489 kts | 109° |
| 2026-05-04 12:46 | 40.12367 | 37.40568 | 38796 ft | 490 kts | 109° |
| 2026-05-04 12:47 | 40.10266 | 37.49056 | 38803 ft | 490 kts | 110° |
| 2026-05-04 12:47 | 40.08159 | 37.57495 | 38803 ft | 491 kts | 112° |
| 2026-05-04 12:48 | 40.05724 | 37.65833 | 38810 ft | 491 kts | 112° |
| 2026-05-04 12:48 | 40.03313 | 37.74152 | 38816 ft | 491 kts | 113° |
| 2026-05-04 12:49 | 40.00850 | 37.82518 | 38814 ft | 492 kts | 112° |
| 2026-05-04 12:49 | 39.98417 | 37.90833 | 38815 ft | 492 kts | 113° |
| 2026-05-04 12:50 | 39.95968 | 37.99128 | 38817 ft | 492 kts | 113° |
| 2026-05-04 12:50 | 39.93505 | 38.07475 | 38817 ft | 491 kts | 113° |
| 2026-05-04 12:51 | 39.91037 | 38.15785 | 38838 ft | 491 kts | 113° |
| 2026-05-04 12:51 | 39.88584 | 38.24041 | 38848 ft | 491 kts | 113° |
| 2026-05-04 12:52 | 39.86097 | 38.32374 | 38848 ft | 492 kts | 113° |
| 2026-05-04 12:52 | 39.83625 | 38.40629 | 38862 ft | 492 kts | 113° |
| 2026-05-04 12:53 | 39.81130 | 38.48945 | 38877 ft | 493 kts | 113° |
| 2026-05-04 12:53 | 39.78636 | 38.57221 | 38879 ft | 492 kts | 114° |
| 2026-05-04 12:54 | 39.76134 | 38.65511 | 38884 ft | 490 kts | 114° |
| 2026-05-04 12:54 | 39.73654 | 38.73696 | 38884 ft | 489 kts | 114° |
| 2026-05-04 12:55 | 39.71145 | 38.81947 | 38884 ft | 490 kts | 114° |
| 2026-05-04 12:55 | 39.68641 | 38.90167 | 38894 ft | 492 kts | 114° |
| 2026-05-04 12:56 | 39.66107 | 38.98451 | 38897 ft | 491 kts | 114° |
| 2026-05-04 12:56 | 39.63593 | 39.06649 | 38898 ft | 490 kts | 114° |
| 2026-05-04 12:57 | 39.61056 | 39.14895 | 38900 ft | 490 kts | 114° |
| 2026-05-04 12:57 | 39.58534 | 39.23073 | 38897 ft | 490 kts | 114° |
| 2026-05-04 12:58 | 39.55991 | 39.31283 | 38902 ft | 490 kts | 114° |
| 2026-05-04 12:58 | 39.53452 | 39.39465 | 38905 ft | 491 kts | 114° |
| 2026-05-04 12:59 | 39.50929 | 39.47706 | 38907 ft | 491 kts | 109° |
| 2026-05-04 12:59 | 39.48799 | 39.56072 | 38908 ft | 492 kts | 111° |
| 2026-05-04 13:00 | 39.46621 | 39.64498 | 38905 ft | 492 kts | 110° |
| 2026-05-04 13:00 | 39.44468 | 39.72880 | 38908 ft | 491 kts | 111° |
| 2026-05-04 13:01 | 39.42299 | 39.81239 | 38907 ft | 491 kts | 111° |
| 2026-05-04 13:01 | 39.40124 | 39.89628 | 38908 ft | 490 kts | 111° |
| 2026-05-04 13:02 | 39.37953 | 39.97952 | 38914 ft | 490 kts | 111° |
| 2026-05-04 13:02 | 39.35781 | 40.06266 | 38912 ft | 489 kts | 111° |
| 2026-05-04 13:03 | 39.33584 | 40.14632 | 38911 ft | 492 kts | 111° |
| 2026-05-04 13:03 | 39.32249 | 40.18696 | 38950 ft | 487 kts | 122° |
| 2026-05-04 13:03 | 39.30397 | 40.22286 | 38950 ft | 484 kts | 131° |
| 2026-05-04 13:04 | 39.26235 | 40.29150 | 38928 ft | 486 kts | 131° |
| 2026-05-04 13:04 | 39.22041 | 40.36040 | 38914 ft | 487 kts | 130° |
| 2026-05-04 13:05 | 39.17882 | 40.42872 | 38913 ft | 486 kts | 131° |
| 2026-05-04 13:05 | 39.13685 | 40.49743 | 38917 ft | 487 kts | 131° |
| 2026-05-04 13:06 | 39.09507 | 40.56570 | 38916 ft | 488 kts | 131° |
| 2026-05-04 13:06 | 39.05283 | 40.63460 | 38911 ft | 488 kts | 131° |
| 2026-05-04 13:07 | 39.01080 | 40.70299 | 38913 ft | 488 kts | 131° |
| 2026-05-04 13:07 | 38.96880 | 40.77119 | 38912 ft | 488 kts | 131° |
| 2026-05-04 13:08 | 38.92640 | 40.83982 | 38910 ft | 488 kts | 131° |
| 2026-05-04 13:08 | 38.88445 | 40.90769 | 38912 ft | 489 kts | 131° |
| 2026-05-04 13:09 | 38.84194 | 40.97627 | 38913 ft | 489 kts | 131° |
| 2026-05-04 13:09 | 38.79965 | 41.04433 | 38916 ft | 490 kts | 132° |
| 2026-05-04 13:10 | 38.75711 | 41.11271 | 38912 ft | 489 kts | 131° |
| 2026-05-04 13:10 | 38.71483 | 41.18050 | 38911 ft | 489 kts | 132° |
| 2026-05-04 13:11 | 38.67216 | 41.24871 | 38910 ft | 489 kts | 132° |
| 2026-05-04 13:11 | 38.62979 | 41.31640 | 38910 ft | 491 kts | 132° |
| 2026-05-04 13:12 | 38.58688 | 41.38467 | 38909 ft | 491 kts | 132° |
| 2026-05-04 13:12 | 38.54426 | 41.45249 | 38910 ft | 491 kts | 132° |
| 2026-05-04 13:13 | 38.50136 | 41.52051 | 38912 ft | 492 kts | 132° |
| 2026-05-04 13:13 | 38.45857 | 41.58825 | 38911 ft | 492 kts | 132° |
| 2026-05-04 13:14 | 38.41534 | 41.65649 | 38913 ft | 492 kts | 132° |
| 2026-05-04 13:14 | 38.37230 | 41.72438 | 38910 ft | 494 kts | 132° |
| 2026-05-04 13:15 | 38.32901 | 41.79243 | 38907 ft | 496 kts | 132° |
| 2026-05-04 13:15 | 38.28575 | 41.86039 | 38907 ft | 496 kts | 132° |
| 2026-05-04 13:16 | 38.24217 | 41.92859 | 38908 ft | 495 kts | 133° |
| 2026-05-04 13:16 | 38.20594 | 41.98526 | 38909 ft | 494 kts | 133° |
| 2026-05-04 13:17 | 38.15553 | 42.06388 | 38906 ft | 495 kts | 133° |
| 2026-05-04 13:17 | 38.11929 | 42.12031 | 38908 ft | 494 kts | 133° |
| 2026-05-04 13:18 | 38.07565 | 42.18813 | 38909 ft | 494 kts | 133° |
| 2026-05-04 13:18 | 38.03226 | 42.25544 | 38907 ft | 495 kts | 133° |
| 2026-05-04 13:19 | 37.98842 | 42.32323 | 38915 ft | 497 kts | 133° |
| 2026-05-04 13:19 | 37.94474 | 42.39070 | 38912 ft | 496 kts | 133° |
| 2026-05-04 13:20 | 37.90105 | 42.45800 | 38915 ft | 496 kts | 133° |
| 2026-05-04 13:20 | 37.85713 | 42.52556 | 38914 ft | 495 kts | 133° |
| 2026-05-04 13:21 | 37.81359 | 42.59238 | 38920 ft | 494 kts | 133° |
| 2026-05-04 13:21 | 37.76971 | 42.65959 | 38933 ft | 493 kts | 133° |
| 2026-05-04 13:22 | 37.72618 | 42.72611 | 38928 ft | 493 kts | 133° |
| 2026-05-04 13:22 | 37.68221 | 42.79316 | 38935 ft | 495 kts | 133° |
| 2026-05-04 13:23 | 37.63854 | 42.85966 | 38930 ft | 494 kts | 134° |
| 2026-05-04 13:23 | 37.59446 | 42.92658 | 38931 ft | 493 kts | 134° |
| 2026-05-04 13:24 | 37.55075 | 42.99287 | 38931 ft | 493 kts | 134° |
| 2026-05-04 13:24 | 37.50707 | 43.05895 | 38905 ft | 492 kts | 134° |
| 2026-05-04 13:25 | 37.44138 | 43.15809 | 38907 ft | 491 kts | 134° |
| 2026-05-04 13:25 | 37.39734 | 43.22437 | 38904 ft | 492 kts | 134° |
| 2026-05-04 13:26 | 37.35358 | 43.29012 | 38944 ft | 493 kts | 134° |
| 2026-05-04 13:26 | 37.30966 | 43.35597 | 38942 ft | 492 kts | 134° |
| 2026-05-04 13:27 | 37.26554 | 43.42196 | 38946 ft | 492 kts | 134° |
| 2026-05-04 13:27 | 37.22172 | 43.48742 | 38946 ft | 492 kts | 134° |
| 2026-05-04 13:28 | 37.17779 | 43.55289 | 38947 ft | 490 kts | 134° |
| 2026-05-04 13:28 | 37.13380 | 43.61830 | 38951 ft | 490 kts | 134° |
| 2026-05-04 13:29 | 37.08986 | 43.68356 | 38952 ft | 492 kts | 135° |
| 2026-05-04 13:29 | 37.04554 | 43.74918 | 38949 ft | 492 kts | 135° |
| 2026-05-04 13:30 | 37.00143 | 43.81442 | 38948 ft | 492 kts | 135° |
| 2026-05-04 13:30 | 36.95706 | 43.87990 | 38945 ft | 491 kts | 135° |
| 2026-05-04 13:31 | 36.91295 | 43.94483 | 38939 ft | 493 kts | 135° |
| 2026-05-04 13:31 | 36.86831 | 44.01048 | 38929 ft | 494 kts | 135° |
| 2026-05-04 13:32 | 36.82400 | 44.07548 | 38926 ft | 492 kts | 135° |
| 2026-05-04 13:32 | 36.77681 | 44.13617 | 38936 ft | 482 kts | 149° |
| 2026-05-04 13:33 | 36.71838 | 44.17416 | 38941 ft | 468 kts | 167° |
| 2026-05-04 13:33 | 36.65632 | 44.19969 | 38913 ft | 472 kts | 167° |
| 2026-05-04 13:34 | 36.59413 | 44.22501 | 38909 ft | 472 kts | 167° |
| 2026-05-04 13:34 | 36.53153 | 44.25059 | 38907 ft | 471 kts | 167° |
| 2026-05-04 13:35 | 36.43831 | 44.28851 | 38895 ft | 470 kts | 167° |
| 2026-05-04 13:36 | 36.37607 | 44.31379 | 38896 ft | 469 kts | 167° |
| 2026-05-04 13:36 | 36.31417 | 44.33889 | 38896 ft | 470 kts | 167° |
| 2026-05-04 13:37 | 36.25210 | 44.36403 | 38895 ft | 471 kts | 167° |
| 2026-05-04 13:37 | 36.18963 | 44.38926 | 38899 ft | 471 kts | 167° |
| 2026-05-04 13:38 | 36.12745 | 44.41434 | 38893 ft | 472 kts | 167° |
| 2026-05-04 13:38 | 36.06499 | 44.43953 | 38893 ft | 471 kts | 167° |
| 2026-05-04 13:39 | 36.00286 | 44.46448 | 38894 ft | 471 kts | 167° |
| 2026-05-04 13:39 | 35.94036 | 44.48960 | 38894 ft | 470 kts | 167° |
| 2026-05-04 13:40 | 35.87830 | 44.51446 | 38895 ft | 470 kts | 167° |
| 2026-05-04 13:40 | 35.81610 | 44.53934 | 38895 ft | 472 kts | 167° |
| 2026-05-04 13:41 | 35.75327 | 44.56445 | 38898 ft | 473 kts | 167° |
| 2026-05-04 13:41 | 35.69098 | 44.58929 | 38900 ft | 471 kts | 167° |
| 2026-05-04 13:42 | 35.59783 | 44.62637 | 38896 ft | 470 kts | 167° |
| 2026-05-04 13:42 | 35.53541 | 44.65114 | 38894 ft | 469 kts | 167° |
| 2026-05-04 13:43 | 35.47352 | 44.67569 | 38895 ft | 470 kts | 167° |
| 2026-05-04 13:43 | 35.41111 | 44.70040 | 38893 ft | 470 kts | 167° |
| 2026-05-04 13:44 | 35.34920 | 44.72487 | 38894 ft | 469 kts | 168° |
| 2026-05-04 13:44 | 35.28682 | 44.74950 | 38893 ft | 469 kts | 168° |
| 2026-05-04 13:45 | 35.22497 | 44.77385 | 38894 ft | 469 kts | 168° |
| 2026-05-04 13:45 | 35.16254 | 44.79840 | 38893 ft | 470 kts | 168° |
| 2026-05-04 13:46 | 35.10026 | 44.82286 | 38894 ft | 471 kts | 168° |
| 2026-05-04 13:46 | 35.03805 | 44.84725 | 38898 ft | 472 kts | 168° |
| 2026-05-04 13:47 | 34.97538 | 44.87178 | 38904 ft | 472 kts | 168° |
| 2026-05-04 13:47 | 34.91293 | 44.89619 | 38901 ft | 472 kts | 168° |
| 2026-05-04 13:48 | 34.85034 | 44.92061 | 38912 ft | 472 kts | 168° |
| 2026-05-04 13:48 | 34.78801 | 44.94489 | 38914 ft | 472 kts | 168° |
| 2026-05-04 13:49 | 34.72567 | 44.96913 | 38913 ft | 471 kts | 168° |
| 2026-05-04 13:49 | 34.66314 | 44.99342 | 38934 ft | 471 kts | 168° |
| 2026-05-04 13:50 | 34.60095 | 45.01753 | 38924 ft | 470 kts | 168° |
| 2026-05-04 13:50 | 34.53835 | 45.04177 | 38930 ft | 470 kts | 168° |
| 2026-05-04 13:51 | 34.47627 | 45.06575 | 38936 ft | 470 kts | 168° |
| 2026-05-04 13:51 | 34.41422 | 45.08971 | 38930 ft | 469 kts | 168° |